GCFV Airport Information

Runway Information
Runway 01 Length 11598 ft width 148 ft
Elevation 37 ft Threshold 3481 ft Heading 2
Runway 19 Length 11598 ft Width 148 ft
Elevation 75 ft Threshold 1719 ft Heading 182
Airport Frequencies
Type APP Name CANARIAS A Frequency 129.3 MHZ
Type ATIS Name ATIS Frequency 118.65 MHZ
Type GND Name GND Frequency 121.7 MHZ
Type TWR Name TWR Frequency 118.5 MHZ
Airport Navaids
Type VOR-DME Name Fuerteventura Frequency 114100 KHZ
Airport Weather Information & NOTAM
ADDS - METARS form results

(2026 UTC 10 August 2022)
Data provider http://aviationweather.gov/metar/data/
 
METAR text: GCFV 102000Z 36014KT 9999 FEW025 24/18 Q1015
Conditions at: GCFV (FUERTEVENTURA AR, ES) observed 2000 UTC 10 August 2022
Temperature: 24.0°C (75°F)
Dewpoint: 18.0°C (64°F) [RH = 69%]
Pressure (altimeter): 29.97 inches Hg (1015.0 mb)
Winds: from the N (360 degrees) at 16 MPH (14 knots; 7.2 m/s)
Visibility: 6 or more miles (10+ km)
Ceiling: at least 12,000 feet AGL
Clouds: few clouds at 2500 feet AGL
Weather: no significant weather observed at this time

METAR text: GCFV 101930Z 36015KT 9999 FEW025 24/18 Q1014
Conditions at: GCFV (FUERTEVENTURA AR, ES) observed 1930 UTC 10 August 2022
Temperature: 24.0°C (75°F)
Dewpoint: 18.0°C (64°F) [RH = 69%]
Pressure (altimeter): 29.94 inches Hg (1014.0 mb)
Winds: from the N (360 degrees) at 17 MPH (15 knots; 7.7 m/s)
Visibility: 6 or more miles (10+ km)
Ceiling: at least 12,000 feet AGL
Clouds: few clouds at 2500 feet AGL
Weather: no significant weather observed at this time

Forecast for: GCFV (FUERTEVENTURA AR, ES)
Text: TAF GCFV 102000Z 1021/1121 35011KT 9999 FEW020 TX26/1114Z TN21/1106Z
Forecast period: 2100 UTC 10 August 2022 to 0900 UTC 11 August 2022
Forecast type: FROM: standard forecast or significant change
Winds: from the N (350 degrees) at 13 MPH (11 knots; 5.7 m/s)
Visibility: 6 or more miles (10+ km)
Ceiling: at least 12,000 feet AGL
Clouds: few clouds at 2000 feet AGL
Weather: no significant weather forecast for this period
Text: BECMG 1109/1111 05015KT
Forecast period: 0900 to 2100 UTC 11 August 2022
Forecast type: BECOMING: Conditions expected to become as follows by 1100 UTC 11 August 2022
Winds: from the NE (50 degrees) at 17 MPH (15 knots; 7.7 m/s)
Visibility: 6 or more miles (10+ km)
Ceiling: at least 12,000 feet AGL
Clouds: few clouds at 2000 feet AGL
Weather: no significant weather forecast for this period